Time;durP1;ratioP1;P1;durP2;ratioP2;P2;SDS_P1;SDS_P2;PMS_P1;PMS_P2;Temp;Humidity;BMP_temperature;BMP_pressure;BME280_temperature;BME280_humidity;BME280_pressure;Samples;Min_cycle;Max_cycle;Signal;HPM_P1;HPM_P2
2022/05/11 00:01:17;;;;;;;2.60;1.67;;;;;;;;;;5052984;28;20288;-78
2022/05/11 00:03:46;;;;;;;2.03;1.70;;;;;;;;;;5053028;28;20712;-78
2022/05/11 00:06:13;;;;;;;2.00;1.80;;;;;;;;;;5053098;28;20194;-78
2022/05/11 00:08:40;;;;;;;3.10;1.80;;;;;;;;;;5053188;28;20197;-77
2022/05/11 00:11:08;;;;;;;5.00;1.83;;;;;;;;;;5053013;28;20288;-78
2022/05/11 00:13:35;;;;;;;1.83;1.73;;;;;;;;;;5052832;28;20293;-78
2022/05/11 00:16:02;;;;;;;6.07;2.00;;;;;;;;;;5052855;28;20785;-78
2022/05/11 00:18:30;;;;;;;2.67;2.20;;;;;;;;;;5052981;28;20757;-77
2022/05/11 00:20:58;;;;;;;3.87;2.13;;;;;;;;;;5052814;28;20240;-77
2022/05/11 00:23:25;;;;;;;4.67;2.20;;;;;;;;;;5053100;28;20667;-77
2022/05/11 00:25:53;;;;;;;1.93;1.83;;;;;;;;;;5052619;28;20292;-78
2022/05/11 00:28:20;;;;;;;1.80;1.70;;;;;;;;;;5052878;28;20381;-78
2022/05/11 00:30:48;;;;;;;3.10;1.70;;;;;;;;;;5052912;28;20206;-77
2022/05/11 00:33:16;;;;;;;4.30;1.70;;;;;;;;;;5052778;28;20197;-78
2022/05/11 00:35:45;;;;;;;1.43;1.33;;;;;;;;;;5052148;28;20704;-78
2022/05/11 00:38:15;;;;;;;1.60;1.50;;;;;;;;;;5052728;28;20198;-78
2022/05/11 00:40:44;;;;;;;1.30;1.20;;;;;;;;;;5052175;28;20634;-78
2022/05/11 00:43:11;;;;;;;1.17;1.17;;;;;;;;;;5052601;28;20230;-78
2022/05/11 00:45:40;;;;;;;4.20;1.33;;;;;;;;;;5052461;28;20235;-78
2022/05/11 00:50:50;;;;;;;2.13;1.70;;;;;;;;;;5051425;28;20225;-78
2022/05/11 00:53:19;;;;;;;3.03;1.57;;;;;;;;;;5052398;28;20306;-77
2022/05/11 00:55:49;;;;;;;3.03;1.50;;;;;;;;;;5051818;28;20204;-78
2022/05/11 00:58:21;;;;;;;1.47;1.27;;;;;;;;;;5052242;28;20240;-78
2022/05/11 01:00:48;;;;;;;2.20;1.40;;;;;;;;;;5052421;28;20568;-78
2022/05/11 01:03:19;;;;;;;3.23;1.47;;;;;;;;;;5052287;28;20284;-78
2022/05/11 01:05:46;;;;;;;4.57;1.80;;;;;;;;;;5051804;28;20276;-78
2022/05/11 01:08:15;;;;;;;3.77;2.60;;;;;;;;;;5052242;28;20229;-78
2022/05/11 01:10:44;;;;;;;1.30;1.20;;;;;;;;;;5051852;28;20725;-78
2022/05/11 01:13:13;;;;;;;2.60;1.20;;;;;;;;;;5051935;28;20212;-78
2022/05/11 01:15:42;;;;;;;3.30;1.80;;;;;;;;;;5051858;28;20585;-78
2022/05/11 01:18:10;;;;;;;1.53;1.43;;;;;;;;;;5051931;28;20218;-78
2022/05/11 01:20:38;;;;;;;2.03;1.70;;;;;;;;;;5051756;28;20284;-77
2022/05/11 01:23:14;;;;;;;1.60;1.40;;;;;;;;;;5052019;28;20643;-78
2022/05/11 01:25:42;;;;;;;3.77;1.70;;;;;;;;;;5051541;28;20280;-78
2022/05/11 01:28:11;;;;;;;3.37;1.73;;;;;;;;;;5051889;28;20663;-78
2022/05/11 01:30:39;;;;;;;1.87;1.60;;;;;;;;;;5051926;28;20197;-78
2022/05/11 01:33:07;;;;;;;2.13;1.90;;;;;;;;;;5052208;28;20193;-78
2022/05/11 01:35:51;;;;;;;1.90;1.27;;;;;;;;;;5051321;28;20661;-78
2022/05/11 01:38:38;;;;;;;2.73;1.77;;;;;;;;;;5050088;28;20732;-78
2022/05/11 01:41:07;;;;;;;3.13;2.10;;;;;;;;;;5051644;28;20669;-78
2022/05/11 01:43:36;;;;;;;2.40;2.20;;;;;;;;;;5051571;28;20245;-77
2022/05/11 01:46:04;;;;;;;3.83;2.10;;;;;;;;;;5051567;28;20200;-77
2022/05/11 01:48:31;;;;;;;3.67;1.97;;;;;;;;;;5051655;28;20280;-77
2022/05/11 01:50:58;;;;;;;2.17;1.70;;;;;;;;;;5053445;28;20232;-77
2022/05/11 01:53:26;;;;;;;1.93;1.73;;;;;;;;;;5056029;28;20205;-77
2022/05/11 01:55:53;;;;;;;2.27;1.90;;;;;;;;;;5055207;28;20285;-78
2022/05/11 01:58:22;;;;;;;2.03;1.80;;;;;;;;;;5055530;28;20713;-77
2022/05/11 02:00:50;;;;;;;3.33;2.20;;;;;;;;;;5055643;28;20601;-78
2022/05/11 02:03:18;;;;;;;2.17;1.87;;;;;;;;;;5055647;28;20289;-78
2022/05/11 02:08:30;;;;;;;3.10;2.80;;;;;;;;;;5055979;28;20323;-78
2022/05/11 02:10:58;;;;;;;3.30;2.60;;;;;;;;;;5055417;28;20288;-78
2022/05/11 02:13:28;;;;;;;3.57;2.43;;;;;;;;;;5055682;28;20280;-78
2022/05/11 02:15:55;;;;;;;4.23;2.37;;;;;;;;;;5054813;28;20592;-78
2022/05/11 02:18:23;;;;;;;2.90;2.00;;;;;;;;;;5055242;28;20320;-78
2022/05/11 02:20:50;;;;;;;2.90;2.00;;;;;;;;;;5055142;28;20236;-78
2022/05/11 02:23:19;;;;;;;4.63;2.40;;;;;;;;;;5055251;28;20288;-78
2022/05/11 02:25:47;;;;;;;2.17;1.97;;;;;;;;;;5054837;28;20285;-78
2022/05/11 02:28:16;;;;;;;3.27;2.03;;;;;;;;;;5055122;28;20284;-77
2022/05/11 02:30:46;;;;;;;2.87;2.37;;;;;;;;;;5055045;28;20201;-78
2022/05/11 02:33:13;;;;;;;6.40;2.83;;;;;;;;;;5055006;28;20237;-78
2022/05/11 02:35:41;;;;;;;2.33;2.00;;;;;;;;;;5054709;28;20588;-78
2022/05/11 02:38:10;;;;;;;2.57;2.37;;;;;;;;;;5054866;28;20313;-78
2022/05/11 02:40:39;;;;;;;2.37;2.17;;;;;;;;;;5054767;28;20198;-78
2022/05/11 02:43:08;;;;;;;3.10;2.43;;;;;;;;;;5054940;28;20297;-78
2022/05/11 02:45:36;;;;;;;2.70;2.40;;;;;;;;;;5054616;28;20202;-80
2022/05/11 02:48:06;;;;;;;5.00;2.07;;;;;;;;;;5054534;28;20285;-80
2022/05/11 02:50:36;;;;;;;7.13;2.90;;;;;;;;;;5054588;28;20186;-80
2022/05/11 02:53:07;;;;;;;4.53;2.13;;;;;;;;;;5054998;28;20202;-80
2022/05/11 02:55:35;;;;;;;2.60;2.40;;;;;;;;;;5054449;28;20186;-80
2022/05/11 02:58:03;;;;;;;3.60;2.20;;;;;;;;;;5054103;28;20246;-81
2022/05/11 03:00:31;;;;;;;2.60;2.40;;;;;;;;;;5054406;28;20293;-81
2022/05/11 03:02:59;;;;;;;2.43;2.23;;;;;;;;;;5053416;28;20204;-80
2022/05/11 03:05:28;;;;;;;4.53;2.87;;;;;;;;;;5054257;28;20209;-80
2022/05/11 03:07:55;;;;;;;3.00;2.70;;;;;;;;;;5054150;28;20356;-80
2022/05/11 03:10:22;;;;;;;5.40;3.93;;;;;;;;;;5060783;28;20292;-80
2022/05/11 03:12:49;;;;;;;5.60;3.00;;;;;;;;;;5062182;28;20303;-80
2022/05/11 03:15:17;;;;;;;3.63;3.00;;;;;;;;;;5066870;28;20295;-80
2022/05/11 03:17:44;;;;;;;4.53;3.17;;;;;;;;;;5073956;28;20315;-80
2022/05/11 03:20:12;;;;;;;6.57;3.07;;;;;;;;;;5071988;28;20204;-80
2022/05/11 03:22:41;;;;;;;10.60;3.70;;;;;;;;;;5054156;28;20288;-80
2022/05/11 03:25:09;;;;;;;3.77;2.30;;;;;;;;;;5053916;28;20202;-80
2022/05/11 03:27:36;;;;;;;5.63;2.90;;;;;;;;;;5054296;28;20277;-80
2022/05/11 03:30:05;;;;;;;3.87;3.10;;;;;;;;;;5054082;28;20633;-80
2022/05/11 03:35:16;;;;;;;7.47;3.40;;;;;;;;;;5053867;28;20186;-80
2022/05/11 03:37:45;;;;;;;4.83;3.80;;;;;;;;;;5053473;28;20226;-79
2022/05/11 03:40:13;;;;;;;3.97;3.03;;;;;;;;;;5053558;28;20205;-80
2022/05/11 03:42:41;;;;;;;3.93;2.87;;;;;;;;;;5058583;28;20213;-80
2022/05/11 03:45:10;;;;;;;8.77;3.30;;;;;;;;;;5073274;28;20197;-80
2022/05/11 03:47:38;;;;;;;5.33;2.70;;;;;;;;;;5074202;28;20197;-80
2022/05/11 03:50:06;;;;;;;4.33;2.90;;;;;;;;;;5073925;28;20266;-79
2022/05/11 03:52:33;;;;;;;4.43;3.17;;;;;;;;;;5073796;28;20224;-80
2022/05/11 03:55:02;;;;;;;6.63;2.83;;;;;;;;;;5073619;28;20205;-80
2022/05/11 03:57:29;;;;;;;5.63;4.00;;;;;;;;;;5072900;28;20233;-80
2022/05/11 03:59:57;;;;;;;6.13;5.00;;;;;;;;;;5073120;28;20684;-80
2022/05/11 04:02:24;;;;;;;7.63;6.13;;;;;;;;;;5073300;28;20203;-80
2022/05/11 04:04:51;;;;;;;8.63;5.33;;;;;;;;;;5072837;28;20287;-80
2022/05/11 04:07:18;;;;;;;4.47;3.57;;;;;;;;;;5073221;28;20196;-80
2022/05/11 04:09:45;;;;;;;5.27;3.60;;;;;;;;;;5069307;28;20197;-81
2022/05/11 04:12:15;;;;;;;5.90;3.13;;;;;;;;;;5072888;28;20201;-80
2022/05/11 04:14:43;;;;;;;6.10;2.73;;;;;;;;;;5072770;28;20288;-79
2022/05/11 04:17:11;;;;;;;4.40;3.23;;;;;;;;;;5072758;28;20715;-81
2022/05/11 04:19:38;;;;;;;3.63;2.93;;;;;;;;;;5072721;28;20201;-81
2022/05/11 04:22:06;;;;;;;4.93;2.47;;;;;;;;;;5072903;28;20228;-79
2022/05/11 04:24:33;;;;;;;3.10;2.90;;;;;;;;;;5072601;28;20291;-78
2022/05/11 04:27:01;;;;;;;6.60;3.70;;;;;;;;;;5072844;28;20236;-79
2022/05/11 04:29:30;;;;;;;4.03;3.60;;;;;;;;;;5072970;28;20283;-79
2022/05/11 04:31:57;;;;;;;5.87;3.53;;;;;;;;;;5072764;28;20659;-80
2022/05/11 04:34:25;;;;;;;6.53;4.53;;;;;;;;;;5072814;28;20203;-79
2022/05/11 04:36:53;;;;;;;3.80;3.40;;;;;;;;;;5072248;28;20196;-78
2022/05/11 04:39:20;;;;;;;3.13;2.63;;;;;;;;;;5072594;28;20246;-78
2022/05/11 04:41:47;;;;;;;9.17;3.27;;;;;;;;;;5072627;28;20643;-79
2022/05/11 04:44:14;;;;;;;6.60;3.43;;;;;;;;;;5072116;28;20288;-79
2022/05/11 04:46:43;;;;;;;9.70;4.00;;;;;;;;;;5072997;28;20577;-79
2022/05/11 04:49:20;;;;;;;7.50;4.00;;;;;;;;;;5072333;28;20205;-79
2022/05/11 04:51:49;;;;;;;12.63;6.93;;;;;;;;;;5072411;28;20188;-79
2022/05/11 04:54:17;;;;;;;13.17;4.87;;;;;;;;;;5071969;28;20193;-79
2022/05/11 04:56:45;;;;;;;4.10;3.30;;;;;;;;;;5072163;28;20267;-78
2022/05/11 04:59:14;;;;;;;5.33;2.77;;;;;;;;;;5072438;28;20681;-79
2022/05/11 05:01:44;;;;;;;5.90;3.57;;;;;;;;;;5072275;28;20768;-77
2022/05/11 05:04:12;;;;;;;4.37;3.33;;;;;;;;;;5072121;28;20240;-76
2022/05/11 05:06:39;;;;;;;3.57;2.60;;;;;;;;;;5072194;28;20197;-77
2022/05/11 05:09:07;;;;;;;9.07;3.03;;;;;;;;;;5072071;28;20193;-77
2022/05/11 05:11:35;;;;;;;4.80;3.23;;;;;;;;;;5072081;28;20288;-77
2022/05/11 05:14:04;;;;;;;5.80;2.80;;;;;;;;;;5072100;28;20701;-77
2022/05/11 05:16:32;;;;;;;6.00;3.00;;;;;;;;;;5072024;28;20222;-77
2022/05/11 05:19:01;;;;;;;7.33;3.23;;;;;;;;;;5071949;28;20590;-77
2022/05/11 05:21:28;;;;;;;4.33;2.73;;;;;;;;;;5071920;28;20212;-77
2022/05/11 05:23:56;;;;;;;10.00;3.10;;;;;;;;;;5072005;28;20279;-77
2022/05/11 05:26:23;;;;;;;11.47;2.90;;;;;;;;;;5071266;28;20288;-77
2022/05/11 05:31:35;;;;;;;6.30;3.23;;;;;;;;;;5072126;28;20254;-77
2022/05/11 05:34:04;;;;;;;6.40;2.63;;;;;;;;;;5071537;28;21115;-77
2022/05/11 05:36:35;;;;;;;3.87;2.30;;;;;;;;;;5071794;28;20728;-77
2022/05/11 05:39:03;;;;;;;4.63;2.90;;;;;;;;;;5071674;28;20440;-77
2022/05/11 05:41:31;;;;;;;3.63;3.17;;;;;;;;;;5071743;28;20287;-77
2022/05/11 05:43:58;;;;;;;4.77;2.33;;;;;;;;;;5071423;28;20212;-77
2022/05/11 05:46:26;;;;;;;6.10;3.10;;;;;;;;;;5071643;28;20748;-77
2022/05/11 05:48:53;;;;;;;3.20;2.10;;;;;;;;;;5071988;28;20298;-78
2022/05/11 05:51:23;;;;;;;3.47;2.27;;;;;;;;;;5071562;28;20287;-77
2022/05/11 05:53:51;;;;;;;2.57;2.37;;;;;;;;;;5071386;28;20191;-78
2022/05/11 05:56:18;;;;;;;7.53;2.53;;;;;;;;;;5071676;28;20200;-77
2022/05/11 05:58:46;;;;;;;3.43;2.50;;;;;;;;;;5071574;28;20217;-77
2022/05/11 06:01:13;;;;;;;3.83;2.13;;;;;;;;;;5071497;28;20288;-77
2022/05/11 06:03:41;;;;;;;4.63;1.73;;;;;;;;;;5071830;28;20623;-77
2022/05/11 06:06:09;;;;;;;3.33;2.03;;;;;;;;;;5071180;28;20197;-77
2022/05/11 06:08:38;;;;;;;4.43;2.40;;;;;;;;;;5071524;28;20199;-77
2022/05/11 06:11:07;;;;;;;3.50;2.87;;;;;;;;;;5071359;28;20291;-77
2022/05/11 06:13:35;;;;;;;2.77;2.10;;;;;;;;;;5071807;28;20665;-77
2022/05/11 06:16:02;;;;;;;3.40;2.23;;;;;;;;;;5071061;28;20653;-77
2022/05/11 06:18:30;;;;;;;4.50;2.20;;;;;;;;;;5071452;28;20217;-77
2022/05/11 06:20:57;;;;;;;2.07;1.97;;;;;;;;;;5071197;28;20710;-77
2022/05/11 06:23:25;;;;;;;2.73;1.77;;;;;;;;;;5071406;28;20235;-77
2022/05/11 06:25:53;;;;;;;4.13;2.20;;;;;;;;;;5070893;28;20707;-77
2022/05/11 06:28:21;;;;;;;3.60;2.53;;;;;;;;;;5071397;28;20194;-78
2022/05/11 06:30:48;;;;;;;2.50;2.27;;;;;;;;;;5071134;28;20193;-78
2022/05/11 06:33:15;;;;;;;4.00;2.90;;;;;;;;;;5071343;28;20244;-77
2022/05/11 06:35:43;;;;;;;3.90;2.30;;;;;;;;;;5071122;28;20196;-77
2022/05/11 06:38:11;;;;;;;5.07;2.90;;;;;;;;;;5074831;28;20233;-77
2022/05/11 06:40:38;;;;;;;4.07;2.30;;;;;;;;;;5074789;28;20752;-77
2022/05/11 06:43:07;;;;;;;3.63;2.43;;;;;;;;;;5074912;28;20196;-77
2022/05/11 06:45:34;;;;;;;2.30;2.10;;;;;;;;;;5074623;28;20286;-78
2022/05/11 06:48:02;;;;;;;2.77;2.30;;;;;;;;;;5074695;28;20193;-77
2022/05/11 06:50:29;;;;;;;2.20;2.00;;;;;;;;;;5074598;28;20212;-77
2022/05/11 06:52:57;;;;;;;5.00;2.13;;;;;;;;;;5074776;28;20287;-77
2022/05/11 07:00:55;;;;;;;3.97;2.17;;;;;;;;;;5074645;28;20196;-77
2022/05/11 07:03:22;;;;;;;6.40;2.47;;;;;;;;;;5074316;28;20202;-78
2022/05/11 07:05:50;;;;;;;3.13;2.30;;;;;;;;;;5074612;28;20204;-78
2022/05/11 07:08:17;;;;;;;3.13;2.10;;;;;;;;;;5074739;28;20193;-79
2022/05/11 07:12:17;;;;;;;3.50;2.57;;;;;;;;;;5074004;28;20298;-79
2022/05/11 07:13:33;;;;;;;5.93;2.50;;;;;;;;;;5074301;28;20547;-79
2022/05/11 07:16:00;;;;;;;3.00;2.63;;;;;;;;;;5074522;28;20612;-79
2022/05/11 07:18:28;;;;;;;5.80;3.20;;;;;;;;;;5074495;28;20221;-79
2022/05/11 07:20:55;;;;;;;6.07;3.10;;;;;;;;;;5073861;28;20211;-79
2022/05/11 07:23:22;;;;;;;4.03;3.43;;;;;;;;;;5074188;28;20211;-79
2022/05/11 07:25:49;;;;;;;5.07;3.60;;;;;;;;;;5074204;28;20645;-79
2022/05/11 07:28:17;;;;;;;4.43;4.03;;;;;;;;;;5074050;28;20291;-79
2022/05/11 07:30:47;;;;;;;4.33;2.50;;;;;;;;;;5073554;28;20673;-79
2022/05/11 07:33:15;;;;;;;4.70;1.97;;;;;;;;;;5074363;28;20662;-79
2022/05/11 07:35:43;;;;;;;3.63;2.83;;;;;;;;;;5073776;28;20201;-79
2022/05/11 07:38:12;;;;;;;3.70;2.80;;;;;;;;;;5073751;28;20201;-79
2022/05/11 07:40:39;;;;;;;2.97;2.77;;;;;;;;;;5073803;28;20248;-79
2022/05/11 07:43:07;;;;;;;4.47;3.40;;;;;;;;;;5073785;28;20283;-79
2022/05/11 07:45:35;;;;;;;3.17;2.87;;;;;;;;;;5073724;28;20247;-79
2022/05/11 07:48:04;;;;;;;6.03;2.60;;;;;;;;;;5073485;28;20258;-79
2022/05/11 07:50:32;;;;;;;3.40;2.47;;;;;;;;;;5073223;28;20197;-79
2022/05/11 07:52:59;;;;;;;3.80;3.50;;;;;;;;;;5073916;28;20200;-79
2022/05/11 07:55:28;;;;;;;4.43;2.90;;;;;;;;;;5073355;28;20292;-79
2022/05/11 08:00:40;;;;;;;3.50;2.40;;;;;;;;;;5073268;28;20243;-79
2022/05/11 08:03:09;;;;;;;7.30;3.43;;;;;;;;;;5073764;28;20201;-79
2022/05/11 08:05:38;;;;;;;5.33;2.80;;;;;;;;;;5073115;28;20240;-79
2022/05/11 08:08:07;;;;;;;4.80;2.53;;;;;;;;;;5073634;28;20208;-79
2022/05/11 08:10:36;;;;;;;3.10;2.80;;;;;;;;;;5072739;28;20201;-79
2022/05/11 08:13:06;;;;;;;3.43;2.43;;;;;;;;;;5073257;28;20208;-79
2022/05/11 08:15:33;;;;;;;3.53;2.80;;;;;;;;;;5072920;28;20681;-79
2022/05/11 08:18:01;;;;;;;4.67;3.53;;;;;;;;;;5073092;28;20616;-79
2022/05/11 08:20:32;;;;;;;4.07;3.10;;;;;;;;;;5072870;28;20267;-79
2022/05/11 08:23:00;;;;;;;5.50;3.33;;;;;;;;;;5073065;28;20189;-79
2022/05/11 08:25:28;;;;;;;4.23;2.77;;;;;;;;;;5073085;28;20200;-79
2022/05/11 08:27:56;;;;;;;3.30;2.57;;;;;;;;;;5073283;28;20585;-79
2022/05/11 08:33:26;;;;;;;4.47;2.67;;;;;;;;;;5073001;28;20181;-80
2022/05/11 08:35:56;;;;;;;3.50;2.73;;;;;;;;;;5072625;28;20656;-79
2022/05/11 08:38:26;;;;;;;4.07;3.07;;;;;;;;;;5073023;28;20189;-79
2022/05/11 08:40:58;;;;;;;4.83;3.20;;;;;;;;;;5072293;28;20215;-79
2022/05/11 08:43:28;;;;;;;5.87;3.20;;;;;;;;;;5072985;28;20260;-79
2022/05/11 08:46:04;;;;;;;8.90;3.90;;;;;;;;;;5072430;28;20232;-79
2022/05/11 08:48:47;;;;;;;4.20;3.00;;;;;;;;;;5072544;28;20639;-79
2022/05/11 08:51:26;;;;;;;3.67;3.00;;;;;;;;;;5072136;28;20665;-79
2022/05/11 08:54:04;;;;;;;5.60;3.27;;;;;;;;;;5072455;28;20267;-79
2022/05/11 08:56:33;;;;;;;5.23;3.27;;;;;;;;;;5072058;28;20308;-79
2022/05/11 08:59:01;;;;;;;7.03;3.47;;;;;;;;;;5072423;28;20258;-79
2022/05/11 09:01:33;;;;;;;3.40;3.10;;;;;;;;;;5071477;28;20192;-79
2022/05/11 09:04:01;;;;;;;3.73;3.10;;;;;;;;;;5072219;28;20188;-79
2022/05/11 09:06:31;;;;;;;5.67;2.97;;;;;;;;;;5072086;28;20193;-79
2022/05/11 09:08:59;;;;;;;3.90;3.30;;;;;;;;;;5071883;28;20288;-79
2022/05/11 09:11:30;;;;;;;3.40;3.20;;;;;;;;;;5072072;28;20248;-79
2022/05/11 09:13:58;;;;;;;6.27;3.50;;;;;;;;;;5072425;28;20625;-79
2022/05/11 09:16:27;;;;;;;3.37;3.13;;;;;;;;;;5071936;28;20255;-79
2022/05/11 09:18:56;;;;;;;4.80;3.10;;;;;;;;;;5071707;28;20330;-79
2022/05/11 09:21:31;;;;;;;4.37;3.17;;;;;;;;;;5071890;28;20203;-79
2022/05/11 09:24:09;;;;;;;4.83;3.13;;;;;;;;;;5071947;28;20274;-79
2022/05/11 09:26:39;;;;;;;6.47;3.63;;;;;;;;;;5071978;28;20223;-80
2022/05/11 09:29:21;;;;;;;4.70;3.57;;;;;;;;;;5071623;28;20296;-79
2022/05/11 09:31:51;;;;;;;4.43;3.27;;;;;;;;;;5071914;28;20222;-79
2022/05/11 09:34:27;;;;;;;4.07;2.57;;;;;;;;;;5071645;28;20199;-79
2022/05/11 09:36:59;;;;;;;5.53;3.60;;;;;;;;;;5071683;28;20216;-79
2022/05/11 09:39:27;;;;;;;3.37;3.00;;;;;;;;;;5071888;28;20583;-79
2022/05/11 09:41:57;;;;;;;3.60;3.30;;;;;;;;;;5071866;28;20210;-79
2022/05/11 09:44:26;;;;;;;4.50;3.60;;;;;;;;;;5071587;28;20303;-79
2022/05/11 09:46:54;;;;;;;4.30;3.30;;;;;;;;;;5071765;28;20204;-79
2022/05/11 09:49:28;;;;;;;6.73;3.50;;;;;;;;;;5071602;28;20189;-79
2022/05/11 09:51:59;;;;;;;6.50;3.33;;;;;;;;;;5071717;28;20678;-79
2022/05/11 09:54:32;;;;;;;3.37;3.03;;;;;;;;;;5071540;28;20279;-79
2022/05/11 09:57:02;;;;;;;4.17;3.40;;;;;;;;;;5071289;28;20705;-79
2022/05/11 09:59:32;;;;;;;3.73;3.40;;;;;;;;;;5071383;28;20724;-79
2022/05/11 10:02:12;;;;;;;3.67;3.37;;;;;;;;;;5071975;28;20681;-79
2022/05/11 10:04:41;;;;;;;6.90;3.47;;;;;;;;;;5071255;28;20276;-79
2022/05/11 10:07:12;;;;;;;3.17;2.77;;;;;;;;;;5071995;28;20189;-80
2022/05/11 10:09:42;;;;;;;8.53;3.10;;;;;;;;;;5071339;28;20186;-79
2022/05/11 10:12:15;;;;;;;4.03;3.60;;;;;;;;;;5073794;28;20213;-80
2022/05/11 10:23:07;;;;;;;4.87;3.47;;;;;;;;;;5075441;28;20184;-80
2022/05/11 10:25:38;;;;;;;6.03;3.03;;;;;;;;;;5075195;28;20185;-79
2022/05/11 10:28:16;;;;;;;6.53;3.13;;;;;;;;;;5075034;28;20196;-80
2022/05/11 10:30:48;;;;;;;6.37;4.63;;;;;;;;;;5074979;28;20269;-80
2022/05/11 10:33:36;;;;;;;3.23;2.93;;;;;;;;;;5075170;28;20191;-80
2022/05/11 10:36:06;;;;;;;3.03;2.80;;;;;;;;;;5074653;28;20243;-80
2022/05/11 10:38:48;;;;;;;3.57;3.27;;;;;;;;;;5075029;28;20674;-81
2022/05/11 10:41:29;;;;;;;4.47;3.07;;;;;;;;;;5074912;28;20186;-80
2022/05/11 10:44:04;;;;;;;3.87;2.97;;;;;;;;;;5074682;28;20221;-80
2022/05/11 10:46:36;;;;;;;9.23;3.97;;;;;;;;;;5074851;28;20185;-80
2022/05/11 10:49:21;;;;;;;3.70;3.00;;;;;;;;;;5074734;28;20181;-80
2022/05/11 10:51:58;;;;;;;3.40;3.10;;;;;;;;;;5074631;28;20185;-81
2022/05/11 10:54:32;;;;;;;4.57;2.80;;;;;;;;;;5074560;28;20228;-81
2022/05/11 10:57:06;;;;;;;3.50;3.10;;;;;;;;;;5074718;28;20281;-81
2022/05/11 10:59:53;;;;;;;5.73;2.80;;;;;;;;;;5074442;28;20209;-80
2022/05/11 11:02:49;;;;;;;3.53;2.77;;;;;;;;;;5074719;28;20642;-80
2022/05/11 11:05:22;;;;;;;3.63;2.80;;;;;;;;;;5038894;28;20654;-81
2022/05/11 11:07:59;;;;;;;4.77;2.50;;;;;;;;;;5074882;28;20634;-80
2022/05/11 11:10:30;;;;;;;2.73;2.50;;;;;;;;;;5074326;28;20579;-80
2022/05/11 11:13:24;;;;;;;4.47;3.27;;;;;;;;;;5074746;28;20185;-80
2022/05/11 11:15:52;;;;;;;3.40;3.20;;;;;;;;;;5074115;28;20231;-81
2022/05/11 11:18:26;;;;;;;3.73;3.40;;;;;;;;;;5074356;28;20949;-80
2022/05/11 11:20:58;;;;;;;6.50;3.10;;;;;;;;;;5074027;28;20205;-79
2022/05/11 11:23:35;;;;;;;5.83;3.07;;;;;;;;;;5073313;28;20200;-80
2022/05/11 11:26:05;;;;;;;6.93;3.30;;;;;;;;;;5073790;28;20671;-80
2022/05/11 11:28:35;;;;;;;4.73;3.37;;;;;;;;;;5074195;28;20221;-80
2022/05/11 11:31:23;;;;;;;7.10;2.60;;;;;;;;;;5073903;28;20662;-81
2022/05/11 11:34:17;;;;;;;3.03;2.60;;;;;;;;;;5074045;28;20192;-82
2022/05/11 11:36:44;;;;;;;3.77;3.30;;;;;;;;;;5071029;28;20197;-81
2022/05/11 11:39:14;;;;;;;4.87;2.77;;;;;;;;;;5073569;28;20650;-80
2022/05/11 11:42:05;;;;;;;3.50;2.60;;;;;;;;;;5074195;28;20219;-80
2022/05/11 11:44:39;;;;;;;3.97;3.20;;;;;;;;;;5073762;28;20224;-78
2022/05/11 11:47:36;;;;;;;3.43;3.00;;;;;;;;;;5073924;28;20219;-78
2022/05/11 11:50:05;;;;;;;3.77;3.13;;;;;;;;;;5073519;28;20696;-78
2022/05/11 11:52:34;;;;;;;5.33;2.97;;;;;;;;;;5073983;28;20225;-78
2022/05/11 11:55:02;;;;;;;3.37;2.70;;;;;;;;;;5073164;28;20296;-78
2022/05/11 11:57:32;;;;;;;4.63;2.80;;;;;;;;;;5073256;28;20290;-78
2022/05/11 12:00:01;;;;;;;3.70;3.33;;;;;;;;;;5073204;28;20295;-79
2022/05/11 12:02:29;;;;;;;3.10;2.90;;;;;;;;;;5073073;28;20232;-78
2022/05/11 12:05:08;;;;;;;3.60;3.30;;;;;;;;;;5073330;28;20197;-78
2022/05/11 12:16:02;;;;;;;5.37;3.13;;;;;;;;;;5072975;28;20303;-78
2022/05/11 12:18:30;;;;;;;7.87;4.30;;;;;;;;;;5073138;28;20207;-78
2022/05/11 12:20:57;;;;;;;3.37;2.83;;;;;;;;;;5072818;28;20221;-78
2022/05/11 12:23:28;;;;;;;4.40;3.30;;;;;;;;;;5073229;28;20721;-78
2022/05/11 12:25:57;;;;;;;3.90;3.60;;;;;;;;;;5072823;28;20188;-78
2022/05/11 12:28:29;;;;;;;3.43;3.13;;;;;;;;;;5072991;28;20594;-78
2022/05/11 12:30:56;;;;;;;3.30;2.70;;;;;;;;;;5072708;28;20228;-78
2022/05/11 12:33:25;;;;;;;3.23;3.00;;;;;;;;;;5073157;28;20285;-78
2022/05/11 12:35:53;;;;;;;3.83;3.37;;;;;;;;;;5072467;28;20614;-78
2022/05/11 12:38:31;;;;;;;4.37;3.17;;;;;;;;;;5072779;28;20285;-78
2022/05/11 12:41:00;;;;;;;4.37;2.97;;;;;;;;;;5072760;28;20209;-78
2022/05/11 12:43:32;;;;;;;3.67;3.37;;;;;;;;;;5072510;28;20197;-78
2022/05/11 12:46:01;;;;;;;6.27;3.27;;;;;;;;;;5072406;28;20220;-78
2022/05/11 12:48:33;;;;;;;3.47;3.17;;;;;;;;;;5072213;28;20201;-78
2022/05/11 12:51:04;;;;;;;3.70;3.17;;;;;;;;;;5072333;28;20177;-78
2022/05/11 12:53:32;;;;;;;6.13;3.17;;;;;;;;;;5072422;28;20191;-78
2022/05/11 12:56:12;;;;;;;5.23;3.20;;;;;;;;;;5072561;28;20220;-78
2022/05/11 12:58:46;;;;;;;4.43;3.13;;;;;;;;;;5072023;28;20705;-78
2022/05/11 13:01:16;;;;;;;5.87;3.33;;;;;;;;;;5072472;28;20208;-78
2022/05/11 13:03:45;;;;;;;4.90;3.37;;;;;;;;;;5072537;28;20589;-78
2022/05/11 13:06:25;;;;;;;5.47;3.00;;;;;;;;;;5072184;28;20200;-78
2022/05/11 13:08:55;;;;;;;3.67;3.37;;;;;;;;;;5072108;28;20668;-78
2022/05/11 13:11:25;;;;;;;3.20;2.97;;;;;;;;;;5072355;28;20276;-78
2022/05/11 13:13:57;;;;;;;3.43;3.13;;;;;;;;;;5072088;28;20212;-78
2022/05/11 13:16:27;;;;;;;3.27;3.07;;;;;;;;;;5072082;28;20185;-78
2022/05/11 13:19:08;;;;;;;3.53;3.23;;;;;;;;;;5071630;28;20185;-78
2022/05/11 13:21:37;;;;;;;4.23;3.73;;;;;;;;;;5071988;28;20205;-79
2022/05/11 13:24:06;;;;;;;7.50;3.97;;;;;;;;;;5071886;28;20326;-79
2022/05/11 13:26:37;;;;;;;8.10;6.20;;;;;;;;;;5071693;28;20283;-78
2022/05/11 13:29:16;;;;;;;8.43;6.47;;;;;;;;;;5072188;28;20212;-78
2022/05/11 13:31:44;;;;;;;24.20;12.57;;;;;;;;;;5072366;28;20235;-78
2022/05/11 13:34:29;;;;;;;19.40;7.83;;;;;;;;;;5071546;28;20205;-79
2022/05/11 13:36:57;;;;;;;97.03;70.53;;;;;;;;;;5071914;28;20644;-78
2022/05/11 13:39:31;;;;;;;22.83;14.87;;;;;;;;;;5071579;28;20205;-78
2022/05/11 13:42:00;;;;;;;28.37;19.30;;;;;;;;;;5071900;28;20595;-78
2022/05/11 13:44:33;;;;;;;11.87;8.63;;;;;;;;;;5071670;28;20193;-78
2022/05/11 13:49:50;;;;;;;13.50;8.80;;;;;;;;;;5032475;28;20293;-78
2022/05/11 13:52:34;;;;;;;18.07;9.07;;;;;;;;;;5071764;28;20194;-78
2022/05/11 13:55:02;;;;;;;12.80;6.30;;;;;;;;;;5071575;28;20191;-78
2022/05/11 13:57:32;;;;;;;11.63;7.93;;;;;;;;;;5071534;28;20346;-78
2022/05/11 14:00:16;;;;;;;31.83;16.20;;;;;;;;;;5071731;28;20288;-78
2022/05/11 14:02:49;;;;;;;4.90;4.50;;;;;;;;;;5071708;28;20189;-78
2022/05/11 14:05:16;;;;;;;13.60;8.70;;;;;;;;;;5071469;28;20288;-78
2022/05/11 14:07:44;;;;;;;5.17;4.70;;;;;;;;;;5071814;28;20577;-78
2022/05/11 14:10:11;;;;;;;17.43;4.43;;;;;;;;;;5071130;28;20287;-78
2022/05/11 14:12:38;;;;;;;6.80;3.37;;;;;;;;;;5071780;28;20278;-78
2022/05/11 14:15:06;;;;;;;4.33;3.73;;;;;;;;;;5071308;28;20292;-78
2022/05/11 14:17:43;;;;;;;4.50;3.70;;;;;;;;;;5066494;28;20212;-78
2022/05/11 14:20:11;;;;;;;3.47;3.17;;;;;;;;;;5051217;28;20201;-78
2022/05/11 14:22:41;;;;;;;5.27;3.50;;;;;;;;;;5065541;28;20232;-79
2022/05/11 14:25:10;;;;;;;3.87;3.57;;;;;;;;;;5071286;28;20186;-78
2022/05/11 14:27:37;;;;;;;4.23;3.13;;;;;;;;;;5071028;28;20291;-78
2022/05/11 14:30:06;;;;;;;4.83;3.50;;;;;;;;;;5071524;28;20585;-78
2022/05/11 14:32:37;;;;;;;3.60;3.30;;;;;;;;;;5058989;28;20645;-78
2022/05/11 14:35:05;;;;;;;5.80;3.17;;;;;;;;;;5051166;28;20179;-78
2022/05/11 14:37:33;;;;;;;6.57;4.27;;;;;;;;;;5051282;28;20198;-78
2022/05/11 14:40:03;;;;;;;5.13;3.97;;;;;;;;;;5050815;28;20666;-78
2022/05/11 14:42:31;;;;;;;4.13;3.83;;;;;;;;;;5051484;28;20232;-79
2022/05/11 14:44:58;;;;;;;4.73;3.40;;;;;;;;;;5051261;28;20198;-78
2022/05/11 14:47:25;;;;;;;4.67;3.30;;;;;;;;;;5050914;28;20237;-78
2022/05/11 14:49:54;;;;;;;5.27;3.60;;;;;;;;;;5051109;28;20280;-78
2022/05/11 14:52:21;;;;;;;6.37;3.77;;;;;;;;;;5051129;28;20198;-79
2022/05/11 14:54:49;;;;;;;7.47;4.00;;;;;;;;;;5050802;28;20288;-79
2022/05/11 15:02:45;;;;;;;6.20;3.47;;;;;;;;;;5067900;28;20210;-79
2022/05/11 15:05:15;;;;;;;4.70;3.40;;;;;;;;;;5074381;28;20287;-79
2022/05/11 15:07:43;;;;;;;4.47;3.50;;;;;;;;;;5074589;28;20224;-79
2022/05/11 15:10:11;;;;;;;3.60;3.30;;;;;;;;;;5073995;28;20302;-78
2022/05/11 15:15:25;;;;;;;3.63;3.33;;;;;;;;;;5074350;28;20295;-78
2022/05/11 15:17:53;;;;;;;3.20;2.97;;;;;;;;;;5074209;28;20193;-79
2022/05/11 15:20:29;;;;;;;6.07;3.73;;;;;;;;;;5074006;28;20197;-79
2022/05/11 15:22:58;;;;;;;3.50;3.20;;;;;;;;;;5074357;28;20193;-79
2022/05/11 15:25:26;;;;;;;4.07;3.67;;;;;;;;;;5074107;28;20205;-78
2022/05/11 15:27:53;;;;;;;6.73;3.73;;;;;;;;;;5074133;28;20236;-79
2022/05/11 15:30:22;;;;;;;10.83;8.03;;;;;;;;;;5069959;28;20201;-80
2022/05/11 15:32:50;;;;;;;4.20;3.80;;;;;;;;;;5073663;28;20200;-79
2022/05/11 15:35:19;;;;;;;6.93;4.43;;;;;;;;;;5075276;28;20296;-80
2022/05/11 15:37:49;;;;;;;8.07;4.40;;;;;;;;;;5076645;28;20677;-79
2022/05/11 15:40:28;;;;;;;;;;;;;;;;;;;;;
2022/05/11 15:42:58;;;;;;;8.77;6.17;;;;;;;;;;5076018;28;20212;-82
2022/05/11 15:45:28;;;;;;;8.43;5.67;;;;;;;;;;5074250;28;20260;-82
2022/05/11 15:48:03;;;;;;;7.50;3.93;;;;;;;;;;5073993;28;20201;-81
2022/05/11 15:50:32;;;;;;;3.97;3.60;;;;;;;;;;5073543;28;20208;-82